createdAt,value
2023-01-08T00:00:04.499Z,1.81
2023-01-08T00:01:03.795Z,1.34
2023-01-08T00:02:04.430Z,1.34
2023-01-08T00:03:04.113Z,2.84
2023-01-08T00:04:04.051Z,2.84
2023-01-08T00:05:04.265Z,1.69
2023-01-08T00:06:04.017Z,1.78
2023-01-08T00:07:03.878Z,1.92
2023-01-08T00:08:03.143Z,1.71
2023-01-08T00:09:04.297Z,1.94
2023-01-08T00:10:04.243Z,1.82
2023-01-08T00:11:03.908Z,1.75
2023-01-08T00:12:03.868Z,1.51
2023-01-08T00:13:04.070Z,2.24
2023-01-08T00:14:04.169Z,1.86
2023-01-08T00:15:04.137Z,1.49
2023-01-08T00:16:03.669Z,1.64
2023-01-08T00:17:04.185Z,2.01
2023-01-08T00:18:06.611Z,2.27
2023-01-08T00:19:03.793Z,2.18
2023-01-08T00:20:03.793Z,3.08
2023-01-08T00:21:04.000Z,3.46
2023-01-08T00:22:04.276Z,2.75
2023-01-08T00:23:04.132Z,2.29
2023-01-08T00:24:04.459Z,2.86
2023-01-08T00:25:03.737Z,1.72
2023-01-08T00:26:03.678Z,3.84
2023-01-08T00:27:03.726Z,2.55
2023-01-08T00:28:04.293Z,2.58
2023-01-08T00:29:04.220Z,2.01
2023-01-08T00:30:04.493Z,4.26
2023-01-08T00:31:06.071Z,3.41
2023-01-08T00:32:03.863Z,2.86
2023-01-08T00:33:03.972Z,3.85
2023-01-08T00:34:04.178Z,2.42
2023-01-08T00:35:04.515Z,2.93
2023-01-08T00:36:04.528Z,3.04
2023-01-08T00:37:03.725Z,3.33
2023-01-08T00:38:04.386Z,4.42
2023-01-08T00:39:04.270Z,2.79
2023-01-08T00:40:04.300Z,2.85
2023-01-08T00:41:04.222Z,2.85
2023-01-08T00:42:04.112Z,2.67
2023-01-08T00:43:04.254Z,1.99
2023-01-08T00:44:04.032Z,2.13
2023-01-08T00:45:03.673Z,3.19
2023-01-08T00:46:04.411Z,2.49
2023-01-08T00:47:04.224Z,2.63
2023-01-08T00:48:03.620Z,2.09
2023-01-08T00:49:03.646Z,2.79
2023-01-08T00:50:04.408Z,1.49
2023-01-08T00:51:04.083Z,1.49
2023-01-08T00:52:06.327Z,2.41
2023-01-08T00:53:04.012Z,4.16
2023-01-08T00:54:04.499Z,2.46
2023-01-08T00:55:03.959Z,2.42
2023-01-08T00:56:04.345Z,2.42
2023-01-08T00:57:03.814Z,1.96
2023-01-08T00:58:03.164Z,1.96
2023-01-08T00:59:03.150Z,1.76
2023-01-08T01:00:04.601Z,1.55
2023-01-08T01:01:04.099Z,1.66
2023-01-08T01:02:04.242Z,2.16
2023-01-08T01:03:03.982Z,1.44
2023-01-08T01:04:03.862Z,2.39
2023-01-08T01:05:03.850Z,2.34
2023-01-08T01:06:03.777Z,2.34
2023-01-08T01:07:04.162Z,2.31
2023-01-08T01:08:04.517Z,2.48
2023-01-08T01:09:03.813Z,2.82
2023-01-08T01:10:03.758Z,3.37
2023-01-08T01:11:03.860Z,2.51
2023-01-08T01:12:04.573Z,2.12
2023-01-08T01:13:04.379Z,3.25
2023-01-08T01:14:03.839Z,2.96
2023-01-08T01:15:04.288Z,2.92
2023-01-08T01:16:03.803Z,3.34
2023-01-08T01:17:04.077Z,3.02
2023-01-08T01:18:04.472Z,2.29
2023-01-08T01:19:03.838Z,2.83
2023-01-08T01:20:03.782Z,3.02
2023-01-08T01:21:04.413Z,2
2023-01-08T01:22:04.385Z,3
2023-01-08T01:23:03.857Z,2.94
2023-01-08T01:24:04.204Z,2.92
2023-01-08T01:25:04.516Z,2.05
2023-01-08T01:26:04.498Z,3.68
2023-01-08T01:27:03.785Z,3.12
2023-01-08T01:28:04.417Z,3.15
2023-01-08T01:29:03.601Z,3.44
2023-01-08T01:30:04.574Z,2.96
2023-01-08T01:31:04.522Z,1.87
2023-01-08T01:32:04.343Z,2.22
2023-01-08T01:33:03.714Z,2.75
2023-01-08T01:34:03.697Z,2.56
2023-01-08T01:35:04.460Z,2.53
2023-01-08T01:36:04.596Z,3.16
2023-01-08T01:37:03.950Z,2.22
2023-01-08T01:38:03.800Z,2.66
2023-01-08T01:39:04.712Z,2.64
2023-01-08T01:40:04.019Z,3.02
2023-01-08T01:41:03.863Z,3.02
2023-01-08T01:42:04.218Z,2.58
2023-01-08T01:43:04.452Z,1.81
2023-01-08T01:44:03.684Z,2.69
2023-01-08T01:45:04.015Z,2.36
2023-01-08T01:46:04.752Z,3.07
2023-01-08T01:47:03.797Z,2.6
2023-01-08T01:48:04.486Z,2.86
2023-01-08T01:49:03.871Z,2.28
2023-01-08T01:50:04.241Z,2.42
2023-01-08T01:51:04.183Z,3.43
2023-01-08T01:52:04.658Z,3.32
2023-01-08T01:53:03.958Z,2.68
2023-01-08T01:54:03.603Z,2.28
2023-01-08T01:55:03.979Z,2.31
2023-01-08T01:56:04.243Z,2.06
2023-01-08T01:57:04.463Z,2.41
2023-01-08T01:58:03.719Z,2.31
2023-01-08T01:59:03.881Z,2.85
2023-01-08T02:00:03.883Z,2.82
2023-01-08T02:01:04.064Z,2.78
2023-01-08T02:02:03.951Z,2.9
2023-01-08T02:03:02.820Z,1.96
2023-01-08T02:04:03.374Z,2.39
2023-01-08T02:05:04.239Z,2.49
2023-01-08T02:06:03.555Z,2.84
2023-01-08T02:07:04.180Z,2.41
2023-01-08T02:08:03.732Z,2.32
2023-01-08T02:09:03.694Z,3.26
2023-01-08T02:10:03.982Z,3.57
2023-01-08T02:11:04.408Z,2.46
2023-01-08T02:12:03.751Z,1.84
2023-01-08T02:13:04.003Z,2.22
2023-01-08T02:14:04.351Z,2.38
2023-01-08T02:15:03.902Z,2.75
2023-01-08T02:16:03.837Z,1.69
2023-01-08T02:17:04.318Z,2.61
2023-01-08T02:18:03.876Z,2.52
2023-01-08T02:19:04.231Z,1.85
2023-01-08T02:20:04.176Z,1.79
2023-01-08T02:21:04.457Z,1.72
2023-01-08T02:22:03.695Z,1.95
2023-01-08T02:23:03.964Z,2.47
2023-01-08T02:24:04.078Z,2.42
2023-01-08T02:25:04.273Z,1.51
2023-01-08T02:26:04.131Z,1.48
2023-01-08T02:27:04.436Z,2.27
2023-01-08T02:28:04.200Z,1.59
2023-01-08T02:29:03.512Z,3.34
2023-01-08T02:30:04.037Z,2.85
2023-01-08T02:31:04.609Z,1.52
2023-01-08T02:32:04.070Z,1.52
2023-01-08T02:33:04.067Z,1.52
2023-01-08T02:34:04.275Z,2.79
2023-01-08T02:35:03.882Z,2.37
2023-01-08T02:36:04.348Z,1.79
2023-01-08T02:37:03.517Z,1.54
2023-01-08T02:38:03.820Z,2.42
2023-01-08T02:39:04.007Z,1.31
2023-01-08T02:40:04.186Z,1.94
2023-01-08T02:41:03.615Z,1.67
2023-01-08T02:42:03.526Z,1.41
2023-01-08T02:43:03.785Z,1.78
2023-01-08T02:44:03.991Z,2.12
2023-01-08T02:45:03.838Z,2.16
2023-01-08T02:46:04.264Z,1.89
2023-01-08T02:47:03.780Z,1.63
2023-01-08T02:48:03.812Z,1.77
2023-01-08T02:49:04.185Z,1.66
2023-01-08T02:50:04.001Z,1.58
2023-01-08T02:51:04.214Z,1.56
2023-01-08T02:52:04.091Z,1.32
2023-01-08T02:53:04.285Z,1.35
2023-01-08T02:54:03.636Z,1.31
2023-01-08T02:55:04.023Z,1.96
2023-01-08T02:56:03.726Z,1.75
2023-01-08T02:57:03.830Z,1.89
2023-01-08T02:58:03.948Z,1.25
2023-01-08T02:59:03.763Z,1.89
2023-01-08T03:00:03.844Z,1.31
2023-01-08T03:01:04.569Z,1.25
2023-01-08T03:02:03.872Z,3.56
2023-01-08T03:03:04.319Z,1.9
2023-01-08T03:04:04.396Z,1.87
2023-01-08T03:05:04.417Z,1.82
2023-01-08T03:06:04.219Z,2.2
2023-01-08T03:07:04.120Z,1.43
2023-01-08T03:08:03.933Z,1.44
2023-01-08T03:09:04.416Z,1.82
2023-01-08T03:10:03.732Z,2.54
2023-01-08T03:11:04.060Z,1.41
2023-01-08T03:12:04.037Z,2.28
2023-01-08T03:13:04.123Z,0.98
2023-01-08T03:14:04.499Z,2.64
2023-01-08T03:15:03.880Z,1.55
2023-01-08T03:16:03.900Z,2.19
2023-01-08T03:17:03.773Z,2.14
2023-01-08T03:18:03.953Z,0.91
2023-01-08T03:19:03.575Z,1.41
2023-01-08T03:20:04.134Z,2.42
2023-01-08T03:21:04.001Z,2.41
2023-01-08T03:22:04.123Z,2.41
2023-01-08T03:23:04.504Z,1.11
2023-01-08T03:24:03.446Z,2.02
2023-01-08T03:25:02.731Z,1.03
2023-01-08T03:26:03.633Z,1.96
2023-01-08T03:27:03.914Z,1.4
2023-01-08T03:28:04.241Z,1.75
2023-01-08T03:29:04.214Z,2.06
2023-01-08T03:30:04.484Z,1.18
2023-01-08T03:31:04.015Z,2.12
2023-01-08T03:32:03.829Z,1.19
2023-01-08T03:33:04.157Z,1.82
2023-01-08T03:34:04.229Z,1.75
2023-01-08T03:35:04.389Z,1.41
2023-01-08T03:36:03.013Z,1.18
2023-01-08T03:37:04.037Z,1.87
2023-01-08T03:38:03.835Z,1.28
2023-01-08T03:39:03.641Z,1.84
2023-01-08T03:40:03.957Z,1.62
2023-01-08T03:41:04.497Z,1.51
2023-01-08T03:42:04.712Z,1.25
2023-01-08T03:43:03.903Z,1.86
2023-01-08T03:44:03.660Z,1.42
2023-01-08T03:45:03.608Z,1.53
2023-01-08T03:46:03.837Z,1.86
2023-01-08T03:47:04.669Z,1.61
2023-01-08T03:48:03.685Z,1.95
2023-01-08T03:49:04.064Z,1.75
2023-01-08T03:50:02.622Z,2.92
2023-01-08T03:51:04.220Z,1.57
2023-01-08T03:52:03.532Z,1.52
2023-01-08T03:53:03.855Z,1.59
2023-01-08T03:54:04.437Z,1.38
2023-01-08T03:55:04.400Z,1.51
2023-01-08T03:56:03.782Z,1.51
2023-01-08T03:57:03.905Z,2.34
2023-01-08T03:58:04.115Z,1.85
2023-01-08T03:59:04.485Z,1.94
2023-01-08T04:00:03.785Z,1.04
2023-01-08T04:01:04.200Z,1.44
2023-01-08T04:02:04.688Z,1.4
2023-01-08T04:03:06.598Z,1.99
2023-01-08T04:04:04.225Z,2.16
2023-01-08T04:05:04.439Z,1.46
2023-01-08T04:06:04.384Z,1.41
2023-01-08T04:07:04.093Z,1.75
2023-01-08T04:08:03.784Z,1.58
2023-01-08T04:09:04.110Z,2.42
2023-01-08T04:10:03.638Z,2.36
2023-01-08T04:11:04.294Z,2.25
2023-01-08T04:12:03.708Z,1.62
2023-01-08T04:13:04.321Z,1.62
2023-01-08T04:14:03.736Z,1.68
2023-01-08T04:15:04.302Z,1.31
2023-01-08T04:16:04.438Z,1.62
2023-01-08T04:17:04.373Z,1.24
2023-01-08T04:18:03.791Z,1.69
2023-01-08T04:19:04.554Z,2.38
2023-01-08T04:20:04.351Z,2.38
2023-01-08T04:21:03.534Z,1.84
2023-01-08T04:22:03.702Z,1.76
2023-01-08T04:23:03.901Z,1.69
2023-01-08T04:24:04.274Z,1.5
2023-01-08T04:25:03.593Z,1.58
2023-01-08T04:26:03.726Z,1.81
2023-01-08T04:27:03.448Z,2.01
2023-01-08T04:28:04.409Z,1.35
2023-01-08T04:29:04.005Z,1.94
2023-01-08T04:30:03.984Z,1.49
2023-01-08T04:31:03.800Z,1.52
2023-01-08T04:32:04.476Z,2.11
2023-01-08T04:33:03.805Z,1.45
2023-01-08T04:34:04.240Z,1.8
2023-01-08T04:35:03.839Z,1.51
2023-01-08T04:36:03.933Z,1.08
2023-01-08T04:37:03.990Z,1.08
2023-01-08T04:38:04.255Z,1.29
2023-01-08T04:39:04.479Z,1.27
2023-01-08T04:40:02.857Z,1.26
2023-01-08T04:41:04.275Z,1.35
2023-01-08T04:42:02.780Z,1.25
2023-01-08T04:43:03.811Z,1.67
2023-01-08T04:44:04.186Z,1.95
2023-01-08T04:45:03.943Z,1.39
2023-01-08T04:46:04.444Z,1.68
2023-01-08T04:47:03.942Z,1.24
2023-01-08T04:48:04.499Z,1.99
2023-01-08T04:49:03.709Z,1.59
2023-01-08T04:50:04.126Z,2.25
2023-01-08T04:51:04.139Z,1.48
2023-01-08T04:52:03.787Z,1.89
2023-01-08T04:53:03.452Z,2.95
2023-01-08T04:54:03.640Z,1.41
2023-01-08T04:55:04.470Z,0.93
2023-01-08T04:56:04.443Z,2.17
2023-01-08T04:57:03.898Z,1.07
2023-01-08T04:58:03.965Z,0.76
2023-01-08T04:59:03.915Z,2.13
2023-01-08T05:00:04.231Z,0.88
2023-01-08T05:01:04.361Z,1.36
2023-01-08T05:02:03.875Z,1.6
2023-01-08T05:03:04.397Z,1.6
2023-01-08T05:04:03.655Z,0.81
2023-01-08T05:05:03.892Z,0.81
2023-01-08T05:06:03.882Z,1.27
2023-01-08T05:07:04.419Z,0.89
2023-01-08T05:08:03.784Z,1.06
2023-01-08T05:09:03.483Z,1.62
2023-01-08T05:10:04.190Z,1.28
2023-01-08T05:11:04.275Z,1.12
2023-01-08T05:12:03.658Z,1.65
2023-01-08T05:13:03.775Z,1.77
2023-01-08T05:14:03.911Z,1.36
2023-01-08T05:15:04.325Z,0.99
2023-01-08T05:16:04.943Z,1.78
2023-01-08T05:17:04.179Z,2.07
2023-01-08T05:18:03.777Z,2.51
2023-01-08T05:19:04.214Z,1.18
2023-01-08T05:20:03.708Z,1.32
2023-01-08T05:21:04.060Z,1.66
2023-01-08T05:22:03.339Z,1.85
2023-01-08T05:23:03.083Z,2.2
2023-01-08T05:24:03.731Z,2.13
2023-01-08T05:25:04.138Z,2.31
2023-01-08T05:26:04.293Z,1.64
2023-01-08T05:27:04.605Z,2.97
2023-01-08T05:28:04.417Z,1.56
2023-01-08T05:29:03.827Z,2.09
2023-01-08T05:30:04.019Z,1.95
2023-01-08T05:31:04.312Z,1.51
2023-01-08T05:32:03.920Z,1.35
2023-01-08T05:33:04.208Z,1.83
2023-01-08T05:34:03.394Z,1.58
2023-01-08T05:35:02.808Z,1.71
2023-01-08T05:36:04.114Z,1.37
2023-01-08T05:37:04.088Z,1.84
2023-01-08T05:38:03.715Z,1.65
2023-01-08T05:39:04.136Z,1.83
2023-01-08T05:40:04.613Z,1.43
2023-01-08T05:41:04.486Z,1.91
2023-01-08T05:42:03.513Z,1.34
2023-01-08T05:43:04.288Z,1.5
2023-01-08T05:44:04.401Z,1.21
2023-01-08T05:45:03.771Z,1.18
2023-01-08T05:46:03.126Z,1.37
2023-01-08T05:47:04.121Z,1.71
2023-01-08T05:48:03.807Z,1.62
2023-01-08T05:49:03.781Z,1.96
2023-01-08T05:50:04.050Z,2.25
2023-01-08T05:51:03.715Z,1.57
2023-01-08T05:52:03.934Z,1.85
2023-01-08T05:53:04.065Z,1.69
2023-01-08T05:54:04.429Z,1.69
2023-01-08T05:55:03.875Z,1.16
2023-01-08T05:56:04.149Z,2.2
2023-01-08T05:57:04.218Z,2.2
2023-01-08T05:58:04.087Z,2.46
2023-01-08T05:59:03.149Z,1.69
2023-01-08T06:00:04.458Z,1.62
2023-01-08T06:01:03.941Z,1
2023-01-08T06:02:02.688Z,1.44
2023-01-08T06:03:04.536Z,1.75
2023-01-08T06:04:03.737Z,1.29
2023-01-08T06:05:04.461Z,1.66
2023-01-08T06:06:03.750Z,1.28
2023-01-08T06:07:03.836Z,2.62
2023-01-08T06:08:04.276Z,1.33
2023-01-08T06:09:03.695Z,1.46
2023-01-08T06:10:04.058Z,1.79
2023-01-08T06:11:04.102Z,1.76
2023-01-08T06:12:03.982Z,1.5
2023-01-08T06:13:04.096Z,1.44
2023-01-08T06:14:04.416Z,1.87
2023-01-08T06:15:04.121Z,1.81
2023-01-08T06:16:04.292Z,1.92
2023-01-08T06:17:04.120Z,1.88
2023-01-08T06:18:04.176Z,2.72
2023-01-08T06:19:03.394Z,2.47
2023-01-08T06:20:04.545Z,1.39
2023-01-08T06:21:03.693Z,2.62
2023-01-08T06:22:04.078Z,2
2023-01-08T06:23:03.698Z,1.29
2023-01-08T06:24:04.010Z,1.52
2023-01-08T06:25:02.785Z,1.15
2023-01-08T06:26:04.438Z,1.15
2023-01-08T06:27:04.606Z,1.15
2023-01-08T06:28:03.058Z,1.61
2023-01-08T06:29:03.551Z,1.69
2023-01-08T06:30:03.771Z,1.99
2023-01-08T06:31:03.946Z,1.34
2023-01-08T06:32:03.509Z,1.69
2023-01-08T06:33:03.893Z,1.55
2023-01-08T06:34:04.108Z,1.36
2023-01-08T06:35:04.543Z,1.73
2023-01-08T06:36:04.012Z,1.27
2023-01-08T06:37:03.930Z,1.34
2023-01-08T06:38:04.066Z,1.25
2023-01-08T06:39:04.442Z,1.29
2023-01-08T06:40:03.901Z,1.26
2023-01-08T06:41:04.019Z,1.15
2023-01-08T06:42:03.076Z,2.48
2023-01-08T06:43:03.798Z,2.48
2023-01-08T06:44:03.892Z,1.58
2023-01-08T06:45:03.300Z,1.58
2023-01-08T06:46:04.101Z,1.08
2023-01-08T06:47:04.279Z,1.81
2023-01-08T06:48:04.590Z,1.2
2023-01-08T06:49:02.692Z,1.2
2023-01-08T06:50:04.167Z,1.22
2023-01-08T06:51:03.332Z,2.39
2023-01-08T06:52:04.271Z,1.74
2023-01-08T06:53:04.201Z,1.52
2023-01-08T06:54:03.916Z,1.18
2023-01-08T06:55:04.054Z,1.8
2023-01-08T06:56:04.230Z,1.22
2023-01-08T06:57:04.046Z,1.56
2023-01-08T06:58:04.374Z,1.21
2023-01-08T06:59:04.565Z,1.09
2023-01-08T07:00:03.652Z,1.39
2023-01-08T07:01:04.459Z,1.97
2023-01-08T07:02:03.943Z,1.72
2023-01-08T07:03:03.996Z,1.72
2023-01-08T07:04:04.275Z,1.69
2023-01-08T07:05:03.802Z,1.81
2023-01-08T07:06:03.453Z,1.34
2023-01-08T07:07:04.601Z,1.55
2023-01-08T07:08:04.136Z,1.51
2023-01-08T07:09:03.920Z,1.66
2023-01-08T07:10:04.191Z,1.54
2023-01-08T07:11:04.002Z,1.49
2023-01-08T07:12:04.252Z,1.21
2023-01-08T07:13:04.516Z,1.22
2023-01-08T07:14:04.127Z,2.29
2023-01-08T07:15:03.828Z,1.08
2023-01-08T07:16:04.185Z,0.84
2023-01-08T07:17:04.058Z,1.45
2023-01-08T07:18:04.337Z,1.19
2023-01-08T07:19:03.298Z,1.49
2023-01-08T07:20:03.507Z,1.68
2023-01-08T07:21:04.531Z,1.35
2023-01-08T07:22:04.459Z,1.23
2023-01-08T07:23:04.468Z,1.29
2023-01-08T07:24:04.258Z,1.38
2023-01-08T07:25:03.702Z,1.11
2023-01-08T07:26:04.018Z,1.3
2023-01-08T07:27:03.681Z,1.01
2023-01-08T07:28:04.044Z,1.47
2023-01-08T07:29:03.596Z,1.88
2023-01-08T07:30:04.649Z,1.34
2023-01-08T07:31:03.445Z,1.03
2023-01-08T07:32:03.773Z,1.35
2023-01-08T07:33:04.507Z,1.14
2023-01-08T07:34:03.794Z,0.82
2023-01-08T07:35:03.896Z,0.94
2023-01-08T07:36:03.995Z,0.94
2023-01-08T07:37:04.189Z,2.29
2023-01-08T07:38:04.430Z,1.32
2023-01-08T07:39:03.882Z,2.12
2023-01-08T07:40:04.319Z,1.34
2023-01-08T07:41:04.205Z,2.25
2023-01-08T07:42:04.488Z,1.66
2023-01-08T07:43:03.874Z,1.32
2023-01-08T07:44:02.816Z,1.92
2023-01-08T07:45:04.107Z,1.98
2023-01-08T07:46:02.654Z,1.24
2023-01-08T07:47:04.270Z,1.24
2023-01-08T07:48:04.384Z,1.14
2023-01-08T07:49:03.767Z,1.01
2023-01-08T07:50:03.741Z,1.64
2023-01-08T07:51:04.020Z,2.99
2023-01-08T07:52:04.139Z,1.74
2023-01-08T07:53:04.535Z,1.76
2023-01-08T07:54:03.589Z,1.96
2023-01-08T07:55:04.060Z,1.69
2023-01-08T07:56:03.819Z,2.03
2023-01-08T07:57:04.147Z,1.96
2023-01-08T07:58:04.295Z,2.45
2023-01-08T07:59:03.116Z,3
2023-01-08T08:00:03.471Z,1.81
2023-01-08T08:01:02.657Z,2.46
2023-01-08T08:02:04.727Z,1.51
2023-01-08T08:03:04.413Z,1.91
2023-01-08T08:04:03.802Z,2.82
2023-01-08T08:05:03.823Z,1.82
2023-01-08T08:06:03.963Z,1.94
2023-01-08T08:07:04.283Z,2.63
2023-01-08T08:08:04.513Z,2.38
2023-01-08T08:09:03.795Z,2.32
2023-01-08T08:10:04.193Z,3.22
2023-01-08T08:11:03.759Z,2.07
2023-01-08T08:12:04.513Z,2.64
2023-01-08T08:13:03.713Z,1.64
2023-01-08T08:14:03.535Z,2.85
2023-01-08T08:15:04.106Z,2.35
2023-01-08T08:16:03.845Z,2.1
2023-01-08T08:17:04.187Z,2.7
2023-01-08T08:18:03.758Z,3.05
2023-01-08T08:19:03.997Z,2.11
2023-01-08T08:20:04.364Z,2.35
2023-01-08T08:21:03.748Z,1.88
2023-01-08T08:22:04.127Z,2.68
2023-01-08T08:23:04.434Z,3.01
2023-01-08T08:24:03.482Z,2.22
2023-01-08T08:25:02.807Z,2.22
2023-01-08T08:26:04.306Z,1.94
2023-01-08T08:27:03.696Z,2.44
2023-01-08T08:28:04.719Z,3.03
2023-01-08T08:29:03.677Z,3.04
2023-01-08T08:30:03.954Z,1.77
2023-01-08T08:31:04.031Z,2.74
2023-01-08T08:32:04.252Z,2.82
2023-01-08T08:33:03.643Z,2.19
2023-01-08T08:34:04.265Z,2.38
2023-01-08T08:35:03.706Z,2.38
2023-01-08T08:36:03.917Z,2.18
2023-01-08T08:37:03.553Z,1.62
2023-01-08T08:38:03.212Z,2.36
2023-01-08T08:39:04.566Z,3.66
2023-01-08T08:40:02.886Z,2.6
2023-01-08T08:41:03.829Z,2.6
2023-01-08T08:42:04.070Z,1.98
2023-01-08T08:43:04.477Z,1.49
2023-01-08T08:44:04.035Z,2.01
2023-01-08T08:45:03.614Z,1.69
2023-01-08T08:46:03.738Z,2.48
2023-01-08T08:47:03.968Z,1.71
2023-01-08T08:48:04.052Z,3.05
2023-01-08T08:49:03.581Z,1.72
2023-01-08T08:50:03.869Z,2.64
2023-01-08T08:51:04.018Z,2.42
2023-01-08T08:52:04.142Z,1.6
2023-01-08T08:53:03.542Z,1.85
2023-01-08T08:54:04.495Z,2.05
2023-01-08T08:55:03.871Z,3.28
2023-01-08T08:56:03.844Z,1.93
2023-01-08T08:57:03.504Z,1.07
2023-01-08T08:58:03.610Z,1.49
2023-01-08T08:59:03.887Z,1.78
2023-01-08T09:00:04.397Z,3.16
2023-01-08T09:01:04.059Z,2.15
2023-01-08T09:02:04.735Z,2.99
2023-01-08T09:03:04.607Z,2.99
2023-01-08T09:04:04.114Z,2.11
2023-01-08T09:05:04.488Z,2.19
2023-01-08T09:06:03.801Z,2.17
2023-01-08T09:07:03.999Z,2.16
2023-01-08T09:08:03.950Z,1.94
2023-01-08T09:09:03.769Z,2.84
2023-01-08T09:10:04.107Z,2.01
2023-01-08T09:11:04.313Z,2.01
2023-01-08T09:12:03.785Z,4.15
2023-01-08T09:13:03.977Z,3.99
2023-01-08T09:14:02.612Z,3.58
2023-01-08T09:15:03.519Z,3.05
2023-01-08T09:16:04.303Z,2.38
2023-01-08T09:17:04.216Z,2.49
2023-01-08T09:18:03.986Z,2.49
2023-01-08T09:19:03.899Z,3.05
2023-01-08T09:20:04.204Z,3.28
2023-01-08T09:21:04.609Z,3.47
2023-01-08T09:22:04.123Z,2.76
2023-01-08T09:23:04.586Z,4.08
2023-01-08T09:24:03.853Z,2.29
2023-01-08T09:25:04.172Z,2.64
2023-01-08T09:26:04.350Z,4.06
2023-01-08T09:27:04.078Z,3.96
2023-01-08T09:28:03.609Z,3.01
2023-01-08T09:29:04.248Z,3.58
2023-01-08T09:30:03.797Z,4.36
2023-01-08T09:31:03.674Z,4.37
2023-01-08T09:32:03.879Z,3.88
2023-01-08T09:33:05.116Z,2.39
2023-01-08T09:34:04.370Z,3.86
2023-01-08T09:35:04.314Z,4.32
2023-01-08T09:36:04.029Z,3.58
2023-01-08T09:37:04.337Z,3.58
2023-01-08T09:38:04.450Z,2.52
2023-01-08T09:39:03.745Z,5.35
2023-01-08T09:40:05.413Z,5.46
2023-01-08T09:41:04.402Z,3.65
2023-01-08T09:42:03.916Z,4.32
2023-01-08T09:43:04.358Z,3.2
2023-01-08T09:44:03.639Z,4.26
2023-01-08T09:45:03.923Z,3.84
2023-01-08T09:46:03.702Z,4.35
2023-01-08T09:47:04.155Z,4.43
2023-01-08T09:48:04.336Z,3.3
2023-01-08T09:49:03.847Z,4.42
2023-01-08T09:50:04.572Z,3.02
2023-01-08T09:51:04.481Z,2.54
2023-01-08T09:52:03.883Z,2.78
2023-01-08T09:53:04.169Z,3.67
2023-01-08T09:54:03.495Z,2.42
2023-01-08T09:55:04.129Z,2.64
2023-01-08T09:56:11.882Z,2.47
2023-01-08T09:57:03.633Z,1.69
2023-01-08T09:58:05.253Z,2.27
2023-01-08T09:59:04.141Z,3.32
2023-01-08T10:00:04.346Z,1.48
2023-01-08T10:01:04.793Z,1.8
2023-01-08T10:02:04.709Z,2.38
2023-01-08T10:03:04.512Z,1.24
2023-01-08T10:04:03.674Z,2.39
2023-01-08T10:05:04.527Z,1.78
2023-01-08T10:06:03.945Z,1.99
2023-01-08T10:07:04.169Z,2.08
2023-01-08T10:08:04.531Z,2.07
2023-01-08T10:09:04.542Z,2.07
2023-01-08T10:10:04.413Z,2.32
2023-01-08T10:11:03.890Z,2.19
2023-01-08T10:12:03.755Z,2.19
2023-01-08T10:13:04.277Z,1.74
2023-01-08T10:14:03.577Z,1.77
2023-01-08T10:15:03.961Z,1.72
2023-01-08T10:16:03.882Z,1.79
2023-01-08T10:17:04.072Z,1.75
2023-01-08T10:18:03.648Z,1.65
2023-01-08T10:19:03.721Z,1.96
2023-01-08T10:20:04.298Z,1.66
2023-01-08T10:21:04.486Z,2.36
2023-01-08T10:22:03.761Z,2.42
2023-01-08T10:23:03.718Z,2.56
2023-01-08T10:24:03.460Z,3.26
2023-01-08T10:25:03.654Z,1.96
2023-01-08T10:26:04.059Z,2.14
2023-01-08T10:27:04.718Z,1.94
2023-01-08T10:28:03.685Z,1.79
2023-01-08T10:29:04.096Z,1.74
2023-01-08T10:30:03.650Z,2.03
2023-01-08T10:31:04.439Z,1.59
2023-01-08T10:32:03.729Z,2.26
2023-01-08T10:33:03.838Z,2.48
2023-01-08T10:34:04.104Z,2.77
2023-01-08T10:35:04.484Z,2.37
2023-01-08T10:36:03.596Z,3.32
2023-01-08T10:37:03.697Z,2.16
2023-01-08T10:38:03.975Z,2.92
2023-01-08T10:39:04.345Z,3.72
2023-01-08T10:40:04.469Z,3.38
2023-01-08T10:41:04.068Z,2.31
2023-01-08T10:42:04.407Z,2.69
2023-01-08T10:43:04.300Z,3.46
2023-01-08T10:44:03.798Z,2.14
2023-01-08T10:45:07.541Z,2.48
2023-01-08T10:46:04.538Z,2.41
2023-01-08T10:47:03.562Z,2.9
2023-01-08T10:48:03.955Z,1.69
2023-01-08T10:49:04.087Z,2.58
2023-01-08T10:50:03.236Z,4.29
2023-01-08T10:51:05.104Z,1.89
2023-01-08T10:52:04.657Z,2.46
2023-01-08T10:53:04.264Z,2.88
2023-01-08T10:54:03.655Z,3.25
2023-01-08T10:55:03.981Z,2.41
2023-01-08T10:56:03.658Z,2.49
2023-01-08T10:57:04.799Z,1.76
2023-01-08T10:58:04.232Z,1.76
2023-01-08T10:59:03.679Z,2.15
2023-01-08T11:00:03.878Z,3.18
2023-01-08T11:01:03.673Z,3.18
2023-01-08T11:02:04.561Z,3.15
2023-01-08T11:03:04.450Z,2.02
2023-01-08T11:04:03.807Z,2.82
2023-01-08T11:05:04.142Z,2.57
2023-01-08T11:06:02.866Z,2.22
2023-01-08T11:07:03.134Z,3.85
2023-01-08T11:08:03.751Z,3.85
2023-01-08T11:09:03.995Z,3.66
2023-01-08T11:10:03.931Z,3.43
2023-01-08T11:11:03.459Z,1.95
2023-01-08T11:12:04.200Z,3.64
2023-01-08T11:13:04.352Z,2.95
2023-01-08T11:14:03.771Z,4.12
2023-01-08T11:15:03.782Z,3.42
2023-01-08T11:16:04.401Z,3.48
2023-01-08T11:17:04.219Z,2.74
2023-01-08T11:18:03.622Z,4.11
2023-01-08T11:19:03.528Z,4.39
2023-01-08T11:20:03.467Z,3.64
2023-01-08T11:21:03.847Z,4.2
2023-01-08T11:22:04.304Z,3.24
2023-01-08T11:23:04.479Z,2.73
2023-01-08T11:24:03.050Z,2.85
2023-01-08T11:25:04.110Z,2.83
2023-01-08T11:26:04.214Z,3.04
2023-01-08T11:27:04.527Z,3.51
2023-01-08T11:28:03.772Z,3.08
2023-01-08T11:29:03.804Z,3.16
2023-01-08T11:30:04.493Z,2.71
2023-01-08T11:31:04.325Z,2.03
2023-01-08T11:32:03.249Z,2.79
2023-01-08T11:33:04.568Z,2.69
2023-01-08T11:34:04.159Z,3.27
2023-01-08T11:35:04.047Z,2.45
2023-01-08T11:36:03.796Z,4.37
2023-01-08T11:37:04.053Z,3.14
2023-01-08T11:38:03.651Z,4.19
2023-01-08T11:39:03.979Z,2.77
2023-01-08T11:40:04.313Z,2.41
2023-01-08T11:41:03.683Z,1.96
2023-01-08T11:42:03.636Z,3.57
2023-01-08T11:43:03.510Z,1.62
2023-01-08T11:44:02.980Z,2.15
2023-01-08T11:45:04.125Z,2.84
2023-01-08T11:46:03.924Z,2.98
2023-01-08T11:47:04.372Z,2.34
2023-01-08T11:48:03.695Z,2.54
2023-01-08T11:49:04.393Z,2.39
2023-01-08T11:50:04.268Z,2.63
2023-01-08T11:51:03.875Z,2.63
2023-01-08T11:52:03.595Z,2.68
2023-01-08T11:53:03.707Z,4.09
2023-01-08T11:54:04.169Z,3.61
2023-01-08T11:55:04.152Z,3.52
2023-01-08T11:56:03.327Z,2.67
2023-01-08T11:57:04.647Z,3.35
2023-01-08T11:58:03.855Z,2.39
2023-01-08T11:59:04.415Z,3.34
2023-01-08T12:00:04.405Z,3.06
2023-01-08T12:01:03.676Z,2.21
2023-01-08T12:02:03.830Z,1.36
2023-01-08T12:03:04.222Z,2.85
2023-01-08T12:04:04.400Z,3.67
2023-01-08T12:05:03.656Z,2.11
2023-01-08T12:06:04.095Z,3.24
2023-01-08T12:07:03.112Z,3.21
2023-01-08T12:08:02.599Z,3.29
2023-01-08T12:09:04.406Z,2.08
2023-01-08T12:10:04.175Z,2.25
2023-01-08T12:11:04.458Z,3.17
2023-01-08T12:12:04.542Z,2.61
2023-01-08T12:13:04.428Z,2.05
2023-01-08T12:14:03.907Z,2.24
2023-01-08T12:15:03.724Z,3.46
2023-01-08T12:16:04.155Z,3.32
2023-01-08T12:17:04.500Z,3.23
2023-01-08T12:18:03.907Z,2.78
2023-01-08T12:19:04.253Z,2.53
2023-01-08T12:20:03.652Z,2.71
2023-01-08T12:21:03.652Z,2.93
2023-01-08T12:22:03.763Z,2.74
2023-01-08T12:23:04.136Z,2.24
2023-01-08T12:24:02.937Z,2.33
2023-01-08T12:25:04.368Z,2.39
2023-01-08T12:26:04.223Z,1.93
2023-01-08T12:27:03.907Z,2.38
2023-01-08T12:28:04.478Z,2.45
2023-01-08T12:29:04.083Z,2.83
2023-01-08T12:30:04.641Z,2.96
2023-01-08T12:31:04.484Z,2.83
2023-01-08T12:32:07.184Z,3.25
2023-01-08T12:33:04.261Z,2.75
2023-01-08T12:34:04.611Z,2.16
2023-01-08T12:35:03.864Z,2.95
2023-01-08T12:36:04.096Z,1.69
2023-01-08T12:37:03.598Z,2.65
2023-01-08T12:38:03.836Z,2.8
2023-01-08T12:39:04.089Z,3.46
2023-01-08T12:40:04.391Z,3.46
2023-01-08T12:41:04.013Z,3.42
2023-01-08T12:42:04.309Z,2.62
2023-01-08T12:43:05.857Z,2.62
2023-01-08T12:44:03.836Z,1.7
2023-01-08T12:45:04.401Z,1.85
2023-01-08T12:46:04.393Z,1.77
2023-01-08T12:47:04.049Z,3.09
2023-01-08T12:48:04.566Z,2.02
2023-01-08T12:49:03.930Z,3.11
2023-01-08T12:50:04.311Z,2.17
2023-01-08T12:51:04.402Z,2.23
2023-01-08T12:52:04.518Z,2.51
2023-01-08T12:53:04.057Z,2.09
2023-01-08T12:54:04.369Z,2
2023-01-08T12:55:04.103Z,2.41
2023-01-08T12:56:03.439Z,1.98
2023-01-08T12:57:02.626Z,2.11
2023-01-08T12:58:04.364Z,1.86
2023-01-08T12:59:03.619Z,2.39
2023-01-08T13:00:03.222Z,1.9
2023-01-08T13:01:03.169Z,2.6
2023-01-08T13:02:04.447Z,1.33
2023-01-08T13:03:03.624Z,2.25
2023-01-08T13:04:03.676Z,1.59
2023-01-08T13:05:04.080Z,1.95
2023-01-08T13:06:04.495Z,2.62
2023-01-08T13:07:03.714Z,2.01
2023-01-08T13:08:03.638Z,2.39
2023-01-08T13:09:04.236Z,1.84
2023-01-08T13:10:03.647Z,2.48
2023-01-08T13:11:04.338Z,2.02
2023-01-08T13:12:03.928Z,2.57
2023-01-08T13:13:04.290Z,1.67
2023-01-08T13:14:04.235Z,1.54
2023-01-08T13:15:03.886Z,1.98
2023-01-08T13:16:03.822Z,1.8
2023-01-08T13:17:04.105Z,1.62
2023-01-08T13:18:03.876Z,2.32
2023-01-08T13:19:03.662Z,2.13
2023-01-08T13:20:03.929Z,1.89